Terminal Aerodrome Forecast
Issued by NWS Shreveport, LA

Home | Current Version | Previous Version | Text Only | Print | Product List | Glossary On
Versions: 1 2 3 4 5 6 7 8 9 10 11 12 13 14 15 16
000
FTUS44 KSHV 240100 CCA
TAFGGG
TAF COR
KGGG 240126Z 2401/2424 03009KT 6SM RA BR SCT012 BKN060 OVC070
     FM240300 06009KT 6SM -RA BR SCT060 BKN100
     FM240600 VRB03KT P6SM SKC
     FM241600 VRB03KT P6SM SCT030=

USA.gov is the U.S. government's official web portal to all federal, state and local government web resources and services.